Time;durP1;ratioP1;P1;durP2;ratioP2;P2;SDS_P1;SDS_P2;PMS_P1;PMS_P2;Temp;Humidity;BMP_temperature;BMP_pressure;BME280_temperature;BME280_humidity;BME280_pressure;Samples;Min_cycle;Max_cycle;Signal;HPM_P1;HPM_P2
2022/06/06 00:04:36;;;;;;;0.20;0.20;;;;;;;19.59;57.96;96852.44;10408981;28;20052;-23
2022/06/06 00:09:36;;;;;;;0.30;0.30;;;;;;;19.84;57.66;96859.13;10409011;28;20038;-23
2022/06/06 00:14:37;;;;;;;0.20;0.20;;;;;;;19.72;57.31;96854.06;10408819;28;20097;-21
2022/06/06 00:19:37;;;;;;;0.20;0.20;;;;;;;19.62;56.85;96847.31;10418624;28;20484;-21
2022/06/06 00:24:37;;;;;;;0.37;0.37;;;;;;;19.58;56.90;96845.66;10449735;28;20553;-21
2022/06/06 00:29:38;;;;;;;0.30;0.30;;;;;;;19.56;57.28;96847.34;10410128;28;20033;-21
2022/06/06 00:34:53;;;;;;;0.40;0.40;;;;;;;19.54;57.34;96844.81;10434825;28;20071;-21
2022/06/06 00:39:55;;;;;;;0.70;0.50;;;;;;;19.53;57.04;96847.34;10408364;28;20061;-22
2022/06/06 00:45:14;;;;;;;0.30;0.30;;;;;;;19.51;57.13;96849.06;10408047;28;20079;-22
2022/06/06 00:50:19;;;;;;;0.22;0.22;;;;;;;19.51;57.20;96843.97;10413684;28;20063;-21
2022/06/06 00:55:24;;;;;;;0.32;0.32;;;;;;;19.51;56.96;96838.91;10480492;28;20061;-21
2022/06/06 01:00:26;;;;;;;0.40;0.40;;;;;;;19.53;58.81;96834.66;10412176;28;20037;-22
2022/06/06 01:05:27;;;;;;;0.30;0.30;;;;;;;19.70;57.95;96817.66;10415756;28;20091;-21
2022/06/06 01:10:27;;;;;;;0.17;0.17;;;;;;;19.78;57.10;96821.91;10415913;28;20044;-23
2022/06/06 01:15:46;;;;;;;0.28;0.28;;;;;;;19.63;57.30;96816.00;10415267;28;20044;-21
2022/06/06 01:20:58;;;;;;;0.40;0.32;;;;;;;19.55;57.14;96810.09;10425230;28;20039;-20
2022/06/06 01:26:04;;;;;;;0.20;0.20;;;;;;;19.55;57.34;96820.25;10445712;28;20124;-21
2022/06/06 01:31:14;;;;;;;0.20;0.20;;;;;;;19.52;56.99;96808.41;10415509;28;20033;-21
2022/06/06 01:36:14;;;;;;;0.30;0.30;;;;;;;19.51;57.06;96816.88;10440677;28;20048;-21
2022/06/06 01:41:40;;;;;;;0.37;0.30;;;;;;;19.46;57.12;96807.56;10425013;28;20037;-22
2022/06/06 01:46:40;;;;;;;0.20;0.20;;;;;;;19.51;57.13;96819.41;10455006;28;20132;-21
2022/06/06 01:51:41;;;;;;;0.40;0.40;;;;;;;19.49;57.00;96805.88;10455697;28;20063;-23
2022/06/06 01:56:41;;;;;;;0.20;0.20;;;;;;;19.51;57.36;96805.88;10464996;28;20052;-21
2022/06/06 02:01:42;;;;;;;0.10;0.10;;;;;;;19.72;57.81;96801.59;10413790;28;20608;-22
2022/06/06 02:06:42;;;;;;;0.13;0.13;;;;;;;19.85;56.83;96805.75;10432303;28;20029;-21
2022/06/06 02:11:43;;;;;;;0.40;0.33;;;;;;;19.68;57.39;96806.69;10437298;28;20411;-21
2022/06/06 02:16:43;;;;;;;0.20;0.20;;;;;;;19.62;56.99;96804.16;10412281;28;20049;-22
2022/06/06 02:21:43;;;;;;;0.30;0.30;;;;;;;19.58;56.96;96797.41;10412529;28;20037;-21
2022/06/06 02:26:44;;;;;;;0.30;0.30;;;;;;;19.50;57.17;96794.88;10411936;28;20412;-21
2022/06/06 02:31:44;;;;;;;0.20;0.20;;;;;;;19.55;57.47;96810.94;10415640;28;20111;-21
2022/06/06 02:36:44;;;;;;;0.37;0.37;;;;;;;19.54;57.36;96809.25;10451471;28;20044;-20
2022/06/06 02:41:45;;;;;;;0.53;0.40;;;;;;;19.46;57.39;96794.88;10436774;28;20717;-21
2022/06/06 02:46:45;;;;;;;0.20;0.20;;;;;;;19.52;57.36;96794.88;10411499;28;20029;-21
2022/06/06 02:51:46;;;;;;;0.30;0.30;;;;;;;19.52;57.08;96793.16;10442103;28;20042;-21
2022/06/06 02:56:46;;;;;;;0.47;0.47;;;;;;;19.57;59.94;96798.22;10461390;28;20544;-21
2022/06/06 03:01:46;;;;;;;0.23;0.23;;;;;;;19.71;57.96;96771.09;10412073;28;20025;-22
2022/06/06 03:07:25;;;;;;;0.20;0.20;;;;;;;19.74;57.11;96784.63;10410334;28;20103;-21
2022/06/06 03:12:58;;;;;;;0.30;0.30;;;;;;;19.63;56.88;96782.97;10408386;28;20659;-22
2022/06/06 03:23:44;;;;;;;0.30;0.30;;;;;;;19.55;57.17;96793.16;10410394;28;20060;-21
2022/06/06 03:29:12;;;;;;;1.08;0.30;;;;;;;19.55;57.29;96794.84;10441120;28;20491;-22
2022/06/06 03:34:25;;;;;;;0.85;0.47;;;;;;;19.53;57.07;96797.41;10440509;28;20283;-21
2022/06/06 03:39:37;;;;;;;0.30;0.30;;;;;;;19.47;57.27;96784.72;10409775;28;20128;-21
2022/06/06 03:45:10;;;;;;;0.17;0.17;;;;;;;19.53;57.26;96796.56;10409198;28;20037;-21
2022/06/06 03:50:21;;;;;;;0.47;0.35;;;;;;;19.52;57.33;96790.63;10413948;28;20033;-21
2022/06/06 03:55:36;;;;;;;1.75;0.20;;;;;;;19.63;58.44;96803.28;10482940;28;20124;-21
2022/06/06 04:00:39;;;;;;;0.40;0.25;;;;;;;19.83;57.57;96801.56;10409450;28;20043;-21
2022/06/06 04:05:40;;;;;;;0.20;0.20;;;;;;;19.75;57.39;96795.66;10427107;28;20029;-21
2022/06/06 04:10:58;;;;;;;0.30;0.30;;;;;;;19.64;57.08;96804.97;10442993;28;20033;-21
2022/06/06 04:16:17;;;;;;;0.32;0.30;;;;;;;19.58;57.03;96810.94;10408919;28;20112;-21
2022/06/06 04:21:25;;;;;;;0.30;0.30;;;;;;;19.55;57.00;96810.94;10408695;28;20033;-23
2022/06/06 04:26:32;;;;;;;0.32;0.32;;;;;;;19.50;56.95;96799.94;10408655;28;20519;-25
2022/06/06 04:32:07;;;;;;;0.20;0.20;;;;;;;19.53;57.05;96806.72;10410252;28;20038;-22
2022/06/06 04:37:31;;;;;;;0.32;0.32;;;;;;;19.51;57.29;96804.16;10429295;28;20038;-20
2022/06/06 04:42:48;;;;;;;0.28;0.28;;;;;;;19.51;56.80;96811.78;10416816;28;20077;-21
2022/06/06 04:47:49;;;;;;;0.30;0.30;;;;;;;19.52;57.07;96820.28;10416638;28;20120;-21
2022/06/06 04:52:56;;;;;;;0.43;0.40;;;;;;;19.57;59.34;96823.63;10464476;28;20040;-22
2022/06/06 04:57:58;;;;;;;0.35;0.28;;;;;;;19.79;57.72;96818.50;10446453;28;20038;-21
2022/06/06 05:02:58;;;;;;;0.10;0.10;;;;;;;19.79;57.02;96815.09;10415743;28;20488;-22
2022/06/06 05:08:26;;;;;;;0.20;0.20;;;;;;;19.64;56.82;96818.53;10415587;28;20045;-22
2022/06/06 05:13:49;;;;;;;0.40;0.30;;;;;;;19.59;56.86;96806.72;10414673;28;20318;-21
2022/06/06 05:19:17;;;;;;;0.32;0.30;;;;;;;19.54;56.79;96814.34;10415743;28;20096;-21
2022/06/06 05:24:42;;;;;;;0.30;0.30;;;;;;;19.54;57.04;96823.63;10414724;28;20041;-22
2022/06/06 05:30:17;;;;;;;0.20;0.20;;;;;;;19.53;56.97;96829.56;10414817;28;20039;-20
2022/06/06 05:35:42;;;;;;;0.20;0.20;;;;;;;19.51;56.94;96832.09;10439674;28;20495;-22
2022/06/06 05:41:03;;;;;;;0.40;0.40;;;;;;;19.51;57.08;96831.28;10414371;28;20115;-21
2022/06/06 05:46:12;;;;;;;0.30;0.20;;;;;;;19.50;56.89;96832.13;10414590;28;20108;-22
2022/06/06 05:51:29;;;;;;;0.30;0.30;;;;;;;19.55;59.53;96826.19;10435812;28;20029;-22
2022/06/06 05:56:45;;;;;;;0.30;0.20;;;;;;;19.78;57.50;96838.81;10468215;28;20034;-22
2022/06/06 06:01:57;;;;;;;0.35;0.35;;;;;;;19.79;57.05;96840.50;10414478;28;20037;-21
2022/06/06 06:07:25;;;;;;;0.20;0.20;;;;;;;19.60;56.95;96828.72;10414036;28;20026;-20
2022/06/06 06:12:51;;;;;;;1.75;0.32;;;;;;;19.59;56.94;96832.09;10414012;28;20041;-21
2022/06/06 06:17:54;;;;;;;0.30;0.30;;;;;;;19.45;56.95;96816.03;10412528;28;20046;-23
2022/06/06 06:23:04;;;;;;;0.22;0.20;;;;;;;19.53;57.03;96832.13;10412602;28;20052;-21
2022/06/06 06:28:08;;;;;;;0.28;0.28;;;;;;;19.53;57.10;96842.28;10412264;28;20045;-21
2022/06/06 06:33:19;;;;;;;0.40;0.30;;;;;;;19.52;57.10;96850.75;10426703;28;20123;-22
2022/06/06 06:38:34;;;;;;;0.22;0.22;;;;;;;19.52;57.09;96865.97;10420618;28;20041;-22
2022/06/06 06:43:59;;;;;;;0.45;0.40;;;;;;;19.50;57.20;96867.69;10412129;28;20037;-21
2022/06/06 06:49:10;;;;;;;0.45;0.30;;;;;;;19.52;57.61;96886.28;10411842;28;20087;-22
2022/06/06 06:54:31;;;;;;;0.40;0.30;;;;;;;19.74;57.63;96877.75;10482229;28;20041;-21
2022/06/06 07:00:08;;;;;;;0.20;0.20;;;;;;;19.83;56.75;96875.22;10415671;28;20041;-21
2022/06/06 07:10:44;;;;;;;0.30;0.30;;;;;;;19.55;57.13;96876.13;10411228;28;19913;-22
2022/06/06 07:15:58;;;;;;;0.30;0.30;;;;;;;19.58;56.91;96881.22;10411079;28;20034;-23
2022/06/06 07:21:01;;;;;;;0.30;0.30;;;;;;;19.57;56.93;96879.50;10410853;28;20037;-21
2022/06/06 07:26:03;;;;;;;0.30;0.30;;;;;;;19.56;57.17;96882.88;10410370;28;20094;-21
2022/06/06 07:31:22;;;;;;;0.38;0.38;;;;;;;19.55;57.53;96879.53;10410455;28;20430;-22
2022/06/06 07:36:39;;;;;;;0.32;0.30;;;;;;;19.56;57.13;96882.88;10409442;28;20032;-22
2022/06/06 07:42:07;;;;;;;0.32;0.32;;;;;;;19.54;57.52;96871.88;10423235;28;20407;-21
2022/06/06 07:47:25;;;;;;;0.50;0.50;;;;;;;19.54;57.47;96880.38;10450651;28;20487;-22
2022/06/06 07:52:46;;;;;;;0.30;0.20;;;;;;;19.74;57.89;96871.00;10454554;28;20068;-22
2022/06/06 07:58:16;;;;;;;0.30;0.30;;;;;;;19.85;56.58;96873.53;10443268;28;20580;-22
2022/06/06 08:03:20;;;;;;;0.28;0.20;;;;;;;19.68;56.97;96877.81;10409216;28;20048;-21
2022/06/06 08:08:50;;;;;;;0.10;0.10;;;;;;;19.62;56.94;96881.22;10439672;28;20053;-21
2022/06/06 08:14:00;;;;;;;0.28;0.22;;;;;;;19.59;57.16;96881.19;10417306;28;20116;-21
2022/06/06 08:19:25;;;;;;;0.20;0.20;;;;;;;19.58;57.27;96892.19;10412177;28;20454;-21
2022/06/06 08:24:31;;;;;;;0.43;0.30;;;;;;;19.57;57.27;96874.41;10449931;28;20064;-21
2022/06/06 08:29:35;;;;;;;0.38;0.38;;;;;;;19.55;57.25;96876.97;10410609;28;20029;-22
2022/06/06 08:34:35;;;;;;;0.40;0.40;;;;;;;19.53;57.02;96863.44;10433223;28;20160;-21
2022/06/06 08:39:52;;;;;;;0.30;0.30;;;;;;;19.52;57.50;96850.75;10449327;28;20041;-21
2022/06/06 08:45:06;;;;;;;0.30;0.30;;;;;;;19.54;57.46;96867.69;10408260;28;20443;-22
2022/06/06 08:55:49;;;;;;;0.32;0.17;;;;;;;19.84;56.76;96859.13;10483172;28;20411;-21
2022/06/06 09:01:01;;;;;;;0.20;0.20;;;;;;;19.69;56.94;96856.63;10449154;28;20036;-21
2022/06/06 09:06:35;;;;;;;0.10;0.10;;;;;;;19.64;57.06;96864.25;10433092;28;20036;-21
2022/06/06 09:11:57;;;;;;;0.25;0.25;;;;;;;19.62;57.08;96862.56;10407988;28;20037;-21
2022/06/06 09:17:13;;;;;;;0.40;0.40;;;;;;;19.60;57.15;96854.13;10407156;28;20389;-21
2022/06/06 09:22:38;;;;;;;0.40;0.40;;;;;;;19.58;57.64;96850.75;10412938;28;20041;-24
2022/06/06 09:27:53;;;;;;;0.30;0.30;;;;;;;19.56;57.07;96847.34;10415273;28;20037;-21
2022/06/06 09:33:29;;;;;;;0.38;0.38;;;;;;;19.57;57.24;96843.94;10427286;28;20047;-22
2022/06/06 09:38:48;;;;;;;0.30;0.30;;;;;;;19.57;57.36;96849.00;10416351;28;20136;-22
2022/06/06 09:44:04;;;;;;;0.40;0.40;;;;;;;19.58;59.01;96845.66;10413912;28;20044;-22
2022/06/06 09:49:10;;;;;;;0.32;0.32;;;;;;;19.78;57.84;96828.66;10414055;28;20120;-21
2022/06/06 10:00:56;;;;;;;0.30;0.20;;;;;;;19.69;57.16;96826.16;10421294;28;20045;-21
2022/06/06 10:06:34;;;;;;;0.30;0.30;;;;;;;19.63;57.13;96826.16;10401494;28;20065;-22
2022/06/06 10:11:52;;;;;;;0.25;0.25;;;;;;;19.61;57.51;96830.41;10412828;28;20041;-23
2022/06/06 10:17:30;;;;;;;0.25;0.25;;;;;;;19.60;57.19;96823.63;10412664;28;20257;-22
2022/06/06 10:23:01;;;;;;;0.40;0.38;;;;;;;19.58;57.22;96825.34;10412666;28;20052;-21
2022/06/06 10:28:04;;;;;;;0.38;0.38;;;;;;;19.59;57.63;96811.78;10438194;28;20037;-21
2022/06/06 10:33:23;;;;;;;0.20;0.20;;;;;;;19.59;57.44;96811.78;10452538;28;20483;-21
2022/06/06 10:38:42;;;;;;;0.40;0.40;;;;;;;19.58;57.83;96805.03;10420687;28;20041;-21
2022/06/06 10:44:17;;;;;;;0.20;0.20;;;;;;;19.67;58.73;96800.75;10442076;28;20402;-22
2022/06/06 10:49:42;;;;;;;0.20;0.20;;;;;;;19.88;57.35;96799.81;10444436;28;20033;-21
2022/06/06 10:55:15;;;;;;;0.30;0.30;;;;;;;19.72;57.67;96796.50;10490468;28;20090;-21
2022/06/06 11:00:35;;;;;;;0.30;0.30;;;;;;;19.64;57.25;96798.22;10411429;28;20048;-23
2022/06/06 11:05:54;;;;;;;0.30;0.30;;;;;;;19.62;57.48;96791.44;10411060;28;20037;-23
2022/06/06 11:11:13;;;;;;;0.30;0.30;;;;;;;19.60;57.12;96783.00;10418548;28;20071;-22
2022/06/06 11:16:41;;;;;;;0.25;0.25;;;;;;;19.59;57.35;96783.84;10451051;28;20043;-22
2022/06/06 11:21:57;;;;;;;0.40;0.40;;;;;;;19.59;57.67;96791.47;10425029;28;20041;-22
2022/06/06 11:27:15;;;;;;;0.40;0.40;;;;;;;19.57;57.41;96768.59;10425889;28;20033;-21
2022/06/06 11:32:40;;;;;;;0.38;0.38;;;;;;;19.57;57.35;96771.16;10450923;28;20450;-23
2022/06/06 11:37:59;;;;;;;0.40;0.40;;;;;;;19.57;57.20;96767.75;10422987;28;20462;-22
2022/06/06 11:43:32;;;;;;;0.20;0.20;;;;;;;19.76;57.94;96761.78;10409372;28;20041;-21
2022/06/06 11:49:03;;;;;;;0.15;0.15;;;;;;;19.91;56.65;96756.63;10409667;28;20519;-22
2022/06/06 11:54:09;;;;;;;0.30;0.30;;;;;;;19.73;57.30;96749.91;10478608;28;20055;-21
2022/06/06 11:59:38;;;;;;;0.30;0.30;;;;;;;19.66;56.88;96739.81;10420505;28;20060;-21
2022/06/06 12:05:06;;;;;;;0.43;0.38;;;;;;;19.62;57.26;96733.88;10408976;28;20407;-22
2022/06/06 12:10:25;;;;;;;0.30;0.30;;;;;;;19.61;57.18;96731.34;10409286;28;20486;-22
2022/06/06 12:15:41;;;;;;;0.43;0.40;;;;;;;19.61;57.25;96728.81;10408894;28;20044;-20
2022/06/06 12:21:11;;;;;;;0.35;0.30;;;;;;;19.60;57.17;96727.13;10408745;28;20041;-23
2022/06/06 12:26:31;;;;;;;0.47;0.40;;;;;;;19.58;57.14;96722.03;10419148;28;20176;-22
2022/06/06 12:32:16;;;;;;;0.20;0.20;;;;;;;19.59;57.13;96715.28;10451595;28;20041;-22
2022/06/06 12:37:24;;;;;;;0.40;0.40;;;;;;;19.54;58.25;96714.44;10406762;28;20061;-23
2022/06/06 12:42:33;;;;;;;0.30;0.30;;;;;;;19.83;57.74;96715.16;10410065;28;20121;-22
2022/06/06 12:47:47;;;;;;;0.13;0.13;;;;;;;19.85;56.91;96703.28;10410596;28;20029;-21
2022/06/06 12:53:04;;;;;;;0.35;0.28;;;;;;;19.71;56.76;96700.81;10457686;28;20033;-21
2022/06/06 12:58:29;;;;;;;0.40;0.40;;;;;;;19.64;57.07;96693.22;10471738;28;20041;-21
2022/06/06 13:04:01;;;;;;;0.40;0.40;;;;;;;19.62;56.94;96683.09;10450823;28;20084;-23
2022/06/06 13:09:29;;;;;;;0.45;0.35;;;;;;;19.62;57.23;96684.78;10417120;28;20064;-22
2022/06/06 13:14:57;;;;;;;0.40;0.40;;;;;;;19.61;57.34;96672.94;10455449;28;20037;-21
2022/06/06 13:20:09;;;;;;;0.47;0.40;;;;;;;19.60;57.27;96676.34;10451079;28;20107;-21
2022/06/06 13:25:31;;;;;;;0.30;0.30;;;;;;;19.60;57.50;96677.16;10417058;28;20569;-21
2022/06/06 13:30:55;;;;;;;0.57;0.57;;;;;;;19.60;57.28;96676.34;10417740;28;20047;-22
2022/06/06 13:36:08;;;;;;;0.20;0.20;;;;;;;19.67;59.14;96688.16;10443095;28;20084;-21
2022/06/06 13:41:24;;;;;;;0.25;0.25;;;;;;;19.90;57.56;96686.31;10426411;28;20565;-22
2022/06/06 13:46:44;;;;;;;0.20;0.20;;;;;;;19.87;56.86;96686.34;10457574;28;20037;-21
2022/06/06 13:52:29;;;;;;;0.10;0.10;;;;;;;19.73;57.27;96683.00;10461420;28;20464;-21
2022/06/06 13:57:46;;;;;;;0.30;0.30;;;;;;;19.68;57.43;96679.69;10455350;28;20034;-23
2022/06/06 14:03:14;;;;;;;0.28;0.28;;;;;;;19.67;57.29;96672.91;10416079;28;20526;-23
2022/06/06 14:08:20;;;;;;;0.40;0.40;;;;;;;19.64;57.62;96667.81;10414538;28;20120;-21
2022/06/06 14:13:39;;;;;;;;;;;;;;;19.65;57.71;96664.44;10443072;28;20028;-22
2022/06/06 14:18:39;;;;;;;0.47;0.47;;;;;;;19.62;57.32;96660.25;10447280;28;19928;-22
2022/06/06 14:23:40;;;;;;;0.57;0.53;;;;;;;19.63;57.42;96655.97;10414622;28;20036;-22
2022/06/06 14:28:43;;;;;;;0.82;0.40;;;;;;;19.62;57.67;96655.16;10413311;28;20789;-21
2022/06/06 14:33:54;;;;;;;0.30;0.30;;;;;;;19.68;58.69;96660.19;10428256;28;20231;-22
2022/06/06 14:38:55;;;;;;;0.13;0.13;;;;;;;19.91;57.66;96660.06;10412480;28;20044;-21
2022/06/06 14:43:58;;;;;;;0.22;0.22;;;;;;;19.90;57.28;96655.81;10411723;28;20292;-20
2022/06/06 14:49:00;;;;;;;0.13;0.10;;;;;;;19.76;57.41;96657.63;10411692;28;20338;-21
2022/06/06 14:54:06;;;;;;;0.50;0.50;;;;;;;19.68;57.20;96659.34;10483810;28;20039;-22
2022/06/06 14:59:32;;;;;;;0.30;0.30;;;;;;;19.66;57.19;96663.59;10457392;28;20048;-21
2022/06/06 15:04:32;;;;;;;0.35;0.35;;;;;;;19.63;57.37;96663.59;10449281;28;20044;-23
2022/06/06 15:09:53;;;;;;;0.43;0.43;;;;;;;19.64;57.33;96662.75;10411155;28;20399;-21
2022/06/06 15:15:09;;;;;;;0.40;0.40;;;;;;;19.63;57.52;96659.38;10410807;28;20292;-21
2022/06/06 15:20:15;;;;;;;0.50;0.45;;;;;;;19.62;57.34;96664.47;10410078;28;20092;-22
2022/06/06 15:25:17;;;;;;;0.40;0.40;;;;;;;19.55;57.58;96657.72;10412152;28;20044;-21
2022/06/06 15:30:29;;;;;;;0.30;0.30;;;;;;;19.62;57.47;96672.06;10451370;28;20466;-22
2022/06/06 15:35:49;;;;;;;0.20;0.20;;;;;;;19.83;57.93;96659.28;10450319;28;20040;-21
2022/06/06 15:41:07;;;;;;;0.13;0.13;;;;;;;19.95;56.68;96659.19;10442960;28;20061;-22
2022/06/06 15:46:23;;;;;;;0.20;0.20;;;;;;;19.76;57.79;96662.69;10409475;28;20033;-21
2022/06/06 15:51:37;;;;;;;0.20;0.20;;;;;;;19.68;57.14;96664.44;10434881;28;20044;-21
2022/06/06 15:57:14;;;;;;;0.28;0.28;;;;;;;19.63;57.15;96661.94;10462643;28;20488;-21
2022/06/06 16:02:38;;;;;;;0.30;0.30;;;;;;;19.62;57.25;96659.38;10409819;28;20037;-21
2022/06/06 16:07:39;;;;;;;0.30;0.30;;;;;;;19.61;57.17;96658.53;10409261;28;20045;-22
2022/06/06 16:13:02;;;;;;;0.30;0.30;;;;;;;19.60;56.96;96650.94;10408845;28;20045;-22
2022/06/06 16:18:17;;;;;;;0.40;0.40;;;;;;;19.58;56.87;96645.84;10408651;28;20053;-22
2022/06/06 16:23:52;;;;;;;0.38;0.38;;;;;;;19.59;56.95;96649.25;10408410;28;20407;-21
2022/06/06 16:29:01;;;;;;;0.35;0.35;;;;;;;19.59;57.36;96644.16;10407415;28;20033;-21
2022/06/06 16:34:36;;;;;;;0.20;0.20;;;;;;;19.83;57.92;96638.94;10428084;28;20064;-22
2022/06/06 16:39:56;;;;;;;0.10;0.10;;;;;;;19.89;56.79;96638.88;10408832;28;20304;-21
2022/06/06 16:50:41;;;;;;;0.20;0.20;;;;;;;19.65;57.06;96641.56;10451482;28;20418;-21
2022/06/06 16:56:05;;;;;;;0.13;0.10;;;;;;;19.60;56.94;96636.53;10443117;28;20048;-20
2022/06/06 17:01:27;;;;;;;0.30;0.30;;;;;;;19.60;57.01;96640.78;10449262;28;20071;-21
2022/06/06 17:12:03;;;;;;;0.38;0.38;;;;;;;19.58;57.51;96642.50;10407588;28;20036;-22
2022/06/06 17:17:12;;;;;;;0.30;0.30;;;;;;;19.58;56.90;96650.09;10407165;28;20034;-21
2022/06/06 17:22:33;;;;;;;0.50;0.40;;;;;;;19.58;56.97;96652.66;10407326;28;20037;-21
2022/06/06 17:28:02;;;;;;;0.30;0.30;;;;;;;19.61;58.53;96647.53;10407653;28;20116;-21
2022/06/06 17:33:20;;;;;;;0.17;0.17;;;;;;;19.86;57.88;96638.91;10418551;28;20136;-19
2022/06/06 17:38:35;;;;;;;0.68;0.20;;;;;;;19.87;56.92;96644.00;10407263;28;20038;-21
2022/06/06 17:43:58;;;;;;;0.20;0.20;;;;;;;19.72;57.10;96645.78;10441987;28;20036;-22
2022/06/06 17:49:21;;;;;;;0.10;0.10;;;;;;;19.66;57.02;96650.91;10445626;28;20479;-21
2022/06/06 17:54:40;;;;;;;0.20;0.20;;;;;;;19.62;57.22;96654.31;10487847;28;20090;-21
2022/06/06 18:00:05;;;;;;;0.25;0.25;;;;;;;19.60;56.96;96656.00;10417111;28;20084;-21
2022/06/06 18:05:24;;;;;;;0.47;0.40;;;;;;;19.60;57.18;96658.56;10435480;28;20090;-22
2022/06/06 18:10:27;;;;;;;0.20;0.20;;;;;;;19.59;56.91;96651.78;10450697;28;20064;-23
2022/06/06 18:15:34;;;;;;;0.40;0.40;;;;;;;19.58;56.94;96647.56;10412808;28;20045;-22
2022/06/06 18:20:34;;;;;;;;;;;;;;;19.58;56.76;96656.00;10422522;28;20036;-22
2022/06/06 18:25:37;;;;;;;0.20;0.20;;;;;;;19.59;58.25;96657.69;10448008;28;19912;-22
2022/06/06 18:30:48;;;;;;;0.30;0.30;;;;;;;19.84;57.72;96649.06;10413132;28;20030;-22
2022/06/06 18:35:50;;;;;;;0.22;0.22;;;;;;;19.88;57.02;96648.22;10447722;28;20083;-21
2022/06/06 18:40:57;;;;;;;0.10;0.10;;;;;;;19.74;57.34;96651.69;10446885;28;20034;-21
2022/06/06 18:46:29;;;;;;;0.20;0.20;;;;;;;19.67;57.11;96657.69;10411235;28;20131;-21
2022/06/06 18:51:34;;;;;;;0.30;0.30;;;;;;;19.63;57.09;96655.97;10437360;28;20426;-21
2022/06/06 18:56:44;;;;;;;0.35;0.35;;;;;;;19.62;57.14;96654.31;10465348;28;20037;-22
2022/06/06 19:01:51;;;;;;;0.35;0.35;;;;;;;19.61;56.96;96657.69;10412106;28;20050;-21
2022/06/06 19:06:58;;;;;;;0.30;0.30;;;;;;;19.61;57.11;96662.78;10441762;28;20033;-21
2022/06/06 19:12:23;;;;;;;0.30;0.30;;;;;;;19.59;57.04;96660.22;10435054;28;20120;-21
2022/06/06 19:17:38;;;;;;;0.20;0.20;;;;;;;19.59;56.94;96654.31;10410940;28;20458;-22
2022/06/06 19:22:45;;;;;;;0.30;0.30;;;;;;;19.59;57.52;96661.94;10410321;28;20483;-21
2022/06/06 19:27:48;;;;;;;0.20;0.20;;;;;;;19.82;57.77;96657.56;10410074;28;20033;-21
2022/06/06 19:32:49;;;;;;;0.10;0.10;;;;;;;19.93;56.83;96661.72;10422787;28;20483;-23
2022/06/06 19:37:50;;;;;;;0.20;0.20;;;;;;;19.76;56.97;96662.69;10414061;28;20042;-21
2022/06/06 19:43:07;;;;;;;0.40;0.30;;;;;;;19.68;56.91;96669.50;10410227;28;20359;-21
2022/06/06 19:48:26;;;;;;;0.28;0.28;;;;;;;19.65;56.92;96677.13;10409755;28;20067;-21
2022/06/06 19:53:33;;;;;;;0.35;0.35;;;;;;;19.61;56.87;96678.00;10468178;28;20060;-22
2022/06/06 19:58:37;;;;;;;0.57;0.40;;;;;;;19.61;57.19;96685.63;10460152;28;20454;-22
2022/06/06 20:03:41;;;;;;;0.32;0.32;;;;;;;19.60;56.93;96686.50;10445516;28;20399;-20
2022/06/06 20:09:24;;;;;;;0.30;0.30;;;;;;;19.58;56.74;96698.34;10409213;28;20064;-21
2022/06/06 20:14:28;;;;;;;0.30;0.20;;;;;;;19.60;56.92;96701.72;10407034;28;20056;-21
2022/06/06 20:19:44;;;;;;;0.40;0.40;;;;;;;19.59;56.95;96702.59;10409024;28;20037;-21
2022/06/06 20:25:00;;;;;;;0.30;0.30;;;;;;;19.79;57.95;96710.94;10409202;28;20132;-22
2022/06/06 20:30:19;;;;;;;0.28;0.28;;;;;;;19.89;56.78;96705.81;10408785;28;20128;-20
2022/06/06 20:35:32;;;;;;;0.22;0.22;;;;;;;19.74;57.22;96707.56;10440132;28;20063;-21
2022/06/06 20:40:47;;;;;;;0.30;0.30;;;;;;;19.66;56.77;96706.78;10444018;28;20427;-22
2022/06/06 20:45:55;;;;;;;0.20;0.20;;;;;;;19.64;57.06;96705.94;10408079;28;20037;-23
2022/06/06 20:50:58;;;;;;;0.40;0.40;;;;;;;19.62;57.04;96700.03;10424976;28;20106;-21
2022/06/06 20:56:30;;;;;;;0.30;0.30;;;;;;;19.62;56.88;96700.88;10472977;28;20033;-21
2022/06/06 21:01:32;;;;;;;0.38;0.32;;;;;;;19.59;57.12;96697.50;10408182;28;20048;-21
2022/06/06 21:06:33;;;;;;;0.40;0.40;;;;;;;19.59;56.87;96695.78;10420386;28;20044;-21
2022/06/06 21:11:37;;;;;;;0.40;0.40;;;;;;;19.60;56.90;96706.81;10435555;28;20462;-22
2022/06/06 21:16:38;;;;;;;0.47;0.47;;;;;;;19.60;57.16;96692.41;10410095;28;20064;-21
2022/06/06 21:21:42;;;;;;;0.30;0.25;;;;;;;19.81;57.56;96686.34;10416249;28;20120;-23
2022/06/06 21:26:42;;;;;;;0.20;0.20;;;;;;;19.94;56.43;96686.28;10415375;28;20503;-22
2022/06/06 21:31:43;;;;;;;0.20;0.20;;;;;;;19.78;57.27;96691.47;10418613;28;20029;-21
2022/06/06 21:36:46;;;;;;;0.20;0.20;;;;;;;19.70;56.81;96695.75;10434819;28;20042;-21
2022/06/06 21:41:46;;;;;;;0.30;0.25;;;;;;;19.66;56.71;96702.53;10414931;28;20033;-21
2022/06/06 21:46:47;;;;;;;0.20;0.20;;;;;;;19.64;57.01;96695.75;10415004;28;20403;-21
2022/06/06 21:51:47;;;;;;;0.33;0.20;;;;;;;19.63;56.96;96696.63;10445159;28;20387;-21
2022/06/06 21:56:52;;;;;;;0.40;0.30;;;;;;;19.61;57.13;96699.16;10464208;28;20300;-21
2022/06/06 22:01:56;;;;;;;0.20;0.20;;;;;;;19.61;56.87;96703.41;10413554;28;20251;-23
2022/06/06 22:06:57;;;;;;;0.47;0.40;;;;;;;19.61;56.94;96705.94;10412954;28;20128;-22
2022/06/06 22:11:57;;;;;;;0.22;0.22;;;;;;;19.55;56.97;96703.44;10413174;28;20503;-23
2022/06/06 22:16:59;;;;;;;0.20;0.20;;;;;;;19.72;58.13;96712.66;10413785;28;20061;-21
2022/06/06 22:21:59;;;;;;;0.20;0.20;;;;;;;19.93;57.63;96719.34;10413451;28;20029;-21
2022/06/06 22:27:00;;;;;;;0.25;0.25;;;;;;;19.81;57.21;96722.78;10411479;28;20499;-21
2022/06/06 22:32:00;;;;;;;0.30;0.30;;;;;;;19.72;56.75;96729.59;10418309;28;20446;-22
2022/06/06 22:37:01;;;;;;;0.30;0.30;;;;;;;19.67;56.87;96729.63;10424202;28;20049;-22
2022/06/06 22:42:02;;;;;;;0.20;0.20;;;;;;;19.60;56.81;96706.81;10411997;28;20099;-21
2022/06/06 22:47:02;;;;;;;0.25;0.25;;;;;;;19.62;56.79;96716.13;10412090;28;20038;-21
2022/06/06 22:52:03;;;;;;;0.20;0.15;;;;;;;19.62;56.94;96713.56;10447214;28;20032;-22
2022/06/06 22:57:04;;;;;;;0.60;0.60;;;;;;;19.61;57.16;96723.72;10457919;28;20045;-21
2022/06/06 23:02:05;;;;;;;0.30;0.30;;;;;;;19.61;57.02;96731.34;10411811;28;20480;-21
2022/06/06 23:07:05;;;;;;;0.30;0.30;;;;;;;19.62;57.00;96738.13;10440852;28;20029;-21
2022/06/06 23:12:06;;;;;;;0.20;0.20;;;;;;;19.61;59.10;96731.34;10433762;28;20300;-22
2022/06/06 23:17:07;;;;;;;0.30;0.30;;;;;;;19.87;57.57;96739.69;10410384;28;20415;-21
2022/06/06 23:22:08;;;;;;;0.20;0.20;;;;;;;19.88;56.70;96751.53;10410538;28;20037;-20
2022/06/06 23:27:08;;;;;;;0.15;0.15;;;;;;;19.73;57.08;96743.97;10409986;28;20030;-21
2022/06/06 23:32:09;;;;;;;0.30;0.30;;;;;;;19.68;56.89;96740.63;10416371;28;20094;-21
2022/06/06 23:37:15;;;;;;;0.45;0.45;;;;;;;19.65;56.84;96722.84;10412771;28;20292;-21
2022/06/06 23:42:16;;;;;;;;;;;;;;;19.57;56.88;96700.03;10410317;28;20112;-22
2022/06/06 23:52:41;;;;;;;0.20;0.20;;;;;;;19.62;57.08;96725.41;10455089;28;20037;-21
2022/06/06 23:57:42;;;;;;;0.30;0.30;;;;;;;19.60;57.10;96722.88;10445831;28;20037;-21
